sensor_id;sensor_type;location;lat;lon;timestamp;P1;durP1;ratioP1;P2;durP2;ratioP2
9950;SDS011;24074;49.254;6.702;2023-10-13T00:01:22;11.40;;;8.93;;
9950;SDS011;24074;49.254;6.702;2023-10-13T00:03:47;14.63;;;9.63;;
9950;SDS011;24074;49.254;6.702;2023-10-13T00:06:13;10.73;;;9.17;;
9950;SDS011;24074;49.254;6.702;2023-10-13T00:08:40;14.30;;;8.83;;
9950;SDS011;24074;49.254;6.702;2023-10-13T00:11:06;11.67;;;9.37;;
9950;SDS011;24074;49.254;6.702;2023-10-13T00:13:37;12.53;;;9.00;;
9950;SDS011;24074;49.254;6.702;2023-10-13T00:16:14;19.30;;;9.83;;
9950;SDS011;24074;49.254;6.702;2023-10-13T00:18:42;12.53;;;8.70;;
9950;SDS011;24074;49.254;6.702;2023-10-13T00:21:09;13.27;;;9.17;;
9950;SDS011;24074;49.254;6.702;2023-10-13T00:23:41;10.83;;;8.60;;
9950;SDS011;24074;49.254;6.702;2023-10-13T00:26:17;11.63;;;9.07;;
9950;SDS011;24074;49.254;6.702;2023-10-13T00:28:52;11.70;;;8.20;;
9950;SDS011;24074;49.254;6.702;2023-10-13T00:31:26;10.30;;;7.60;;
9950;SDS011;24074;49.254;6.702;2023-10-13T00:33:58;12.37;;;8.23;;
9950;SDS011;24074;49.254;6.702;2023-10-13T00:36:34;10.97;;;7.67;;
9950;SDS011;24074;49.254;6.702;2023-10-13T00:39:00;9.30;;;7.63;;
9950;SDS011;24074;49.254;6.702;2023-10-13T00:41:26;8.40;;;7.60;;
9950;SDS011;24074;49.254;6.702;2023-10-13T00:44:14;9.27;;;8.20;;
9950;SDS011;24074;49.254;6.702;2023-10-13T00:46:41;10.93;;;7.40;;
9950;SDS011;24074;49.254;6.702;2023-10-13T00:49:10;9.23;;;6.83;;
9950;SDS011;24074;49.254;6.702;2023-10-13T00:51:41;11.77;;;7.90;;
9950;SDS011;24074;49.254;6.702;2023-10-13T00:54:12;11.63;;;7.63;;
9950;SDS011;24074;49.254;6.702;2023-10-13T00:56:39;13.60;;;7.83;;
9950;SDS011;24074;49.254;6.702;2023-10-13T00:59:22;9.07;;;8.00;;
9950;SDS011;24074;49.254;6.702;2023-10-13T01:01:50;10.07;;;7.93;;
9950;SDS011;24074;49.254;6.702;2023-10-13T01:04:20;11.30;;;8.17;;
9950;SDS011;24074;49.254;6.702;2023-10-13T01:06:48;10.57;;;9.10;;
9950;SDS011;24074;49.254;6.702;2023-10-13T01:09:16;11.07;;;8.50;;
9950;SDS011;24074;49.254;6.702;2023-10-13T01:11:46;13.03;;;8.27;;
9950;SDS011;24074;49.254;6.702;2023-10-13T01:14:17;7.37;;;6.63;;
9950;SDS011;24074;49.254;6.702;2023-10-13T01:16:44;8.77;;;6.00;;
9950;SDS011;24074;49.254;6.702;2023-10-13T01:19:11;10.33;;;6.47;;
9950;SDS011;24074;49.254;6.702;2023-10-13T01:21:39;13.43;;;7.60;;
9950;SDS011;24074;49.254;6.702;2023-10-13T01:24:12;8.33;;;6.27;;
9950;SDS011;24074;49.254;6.702;2023-10-13T01:26:48;8.50;;;5.93;;
9950;SDS011;24074;49.254;6.702;2023-10-13T01:29:16;8.90;;;5.53;;
9950;SDS011;24074;49.254;6.702;2023-10-13T01:31:44;8.80;;;5.87;;
9950;SDS011;24074;49.254;6.702;2023-10-13T01:34:19;9.97;;;5.07;;
9950;SDS011;24074;49.254;6.702;2023-10-13T01:36:49;11.53;;;5.90;;
9950;SDS011;24074;49.254;6.702;2023-10-13T01:39:16;8.43;;;5.87;;
9950;SDS011;24074;49.254;6.702;2023-10-13T01:41:42;8.33;;;5.73;;
9950;SDS011;24074;49.254;6.702;2023-10-13T01:44:09;7.20;;;6.10;;
9950;SDS011;24074;49.254;6.702;2023-10-13T01:46:39;9.67;;;6.20;;
9950;SDS011;24074;49.254;6.702;2023-10-13T01:49:07;8.10;;;6.23;;
9950;SDS011;24074;49.254;6.702;2023-10-13T01:51:33;7.47;;;6.47;;
9950;SDS011;24074;49.254;6.702;2023-10-13T01:53:59;10.53;;;6.47;;
9950;SDS011;24074;49.254;6.702;2023-10-13T01:56:28;6.80;;;6.10;;
9950;SDS011;24074;49.254;6.702;2023-10-13T01:58:56;8.10;;;6.03;;
9950;SDS011;24074;49.254;6.702;2023-10-13T02:01:21;12.17;;;6.03;;
9950;SDS011;24074;49.254;6.702;2023-10-13T02:03:54;9.10;;;6.27;;
9950;SDS011;24074;49.254;6.702;2023-10-13T02:06:31;12.10;;;6.00;;
9950;SDS011;24074;49.254;6.702;2023-10-13T02:08:59;8.03;;;5.83;;
9950;SDS011;24074;49.254;6.702;2023-10-13T02:11:35;9.53;;;6.33;;
9950;SDS011;24074;49.254;6.702;2023-10-13T02:14:02;10.20;;;5.90;;
9950;SDS011;24074;49.254;6.702;2023-10-13T02:16:28;10.37;;;5.57;;
9950;SDS011;24074;49.254;6.702;2023-10-13T02:18:56;6.73;;;5.60;;
9950;SDS011;24074;49.254;6.702;2023-10-13T02:21:34;8.03;;;5.73;;
9950;SDS011;24074;49.254;6.702;2023-10-13T02:24:07;7.87;;;6.07;;
9950;SDS011;24074;49.254;6.702;2023-10-13T02:26:38;12.23;;;6.87;;
9950;SDS011;24074;49.254;6.702;2023-10-13T02:29:05;9.77;;;6.20;;
9950;SDS011;24074;49.254;6.702;2023-10-13T02:31:38;11.43;;;7.07;;
9950;SDS011;24074;49.254;6.702;2023-10-13T02:34:05;12.63;;;7.07;;
9950;SDS011;24074;49.254;6.702;2023-10-13T02:36:34;11.93;;;7.10;;
9950;SDS011;24074;49.254;6.702;2023-10-13T02:39:12;11.93;;;7.03;;
9950;SDS011;24074;49.254;6.702;2023-10-13T02:41:40;10.53;;;6.10;;
9950;SDS011;24074;49.254;6.702;2023-10-13T02:44:06;9.63;;;5.93;;
9950;SDS011;24074;49.254;6.702;2023-10-13T02:46:35;9.33;;;5.27;;
9950;SDS011;24074;49.254;6.702;2023-10-13T02:49:02;7.30;;;5.63;;
9950;SDS011;24074;49.254;6.702;2023-10-13T02:51:35;8.33;;;5.47;;
9950;SDS011;24074;49.254;6.702;2023-10-13T02:54:02;10.53;;;5.63;;
9950;SDS011;24074;49.254;6.702;2023-10-13T02:56:36;9.33;;;5.63;;
9950;SDS011;24074;49.254;6.702;2023-10-13T02:59:24;10.57;;;6.10;;
9950;SDS011;24074;49.254;6.702;2023-10-13T03:02:00;8.90;;;6.23;;
9950;SDS011;24074;49.254;6.702;2023-10-13T03:04:32;9.70;;;6.70;;
9950;SDS011;24074;49.254;6.702;2023-10-13T03:06:58;10.67;;;5.97;;
9950;SDS011;24074;49.254;6.702;2023-10-13T03:09:24;6.67;;;5.33;;
9950;SDS011;24074;49.254;6.702;2023-10-13T03:11:50;9.13;;;5.67;;
9950;SDS011;24074;49.254;6.702;2023-10-13T03:14:16;12.23;;;6.20;;
9950;SDS011;24074;49.254;6.702;2023-10-13T03:16:57;9.40;;;5.37;;
9950;SDS011;24074;49.254;6.702;2023-10-13T03:19:45;8.17;;;5.50;;
9950;SDS011;24074;49.254;6.702;2023-10-13T03:22:15;9.73;;;5.37;;
9950;SDS011;24074;49.254;6.702;2023-10-13T03:24:44;9.90;;;5.13;;
9950;SDS011;24074;49.254;6.702;2023-10-13T03:27:13;6.17;;;5.10;;
9950;SDS011;24074;49.254;6.702;2023-10-13T03:29:48;6.53;;;4.87;;
9950;SDS011;24074;49.254;6.702;2023-10-13T03:32:19;7.27;;;5.07;;
9950;SDS011;24074;49.254;6.702;2023-10-13T03:34:45;9.37;;;5.33;;
9950;SDS011;24074;49.254;6.702;2023-10-13T03:37:32;13.03;;;6.00;;
9950;SDS011;24074;49.254;6.702;2023-10-13T03:40:04;8.90;;;5.10;;
9950;SDS011;24074;49.254;6.702;2023-10-13T03:45:33;9.00;;;5.67;;
9950;SDS011;24074;49.254;6.702;2023-10-13T03:48:07;10.97;;;5.90;;
9950;SDS011;24074;49.254;6.702;2023-10-13T03:50:40;7.53;;;5.13;;
9950;SDS011;24074;49.254;6.702;2023-10-13T03:53:13;8.47;;;5.10;;
9950;SDS011;24074;49.254;6.702;2023-10-13T03:55:39;12.23;;;6.43;;
9950;SDS011;24074;49.254;6.702;2023-10-13T03:58:12;10.70;;;5.97;;
9950;SDS011;24074;49.254;6.702;2023-10-13T04:00:39;9.70;;;5.83;;
9950;SDS011;24074;49.254;6.702;2023-10-13T04:03:07;10.93;;;5.17;;
9950;SDS011;24074;49.254;6.702;2023-10-13T04:05:41;13.37;;;6.33;;
9950;SDS011;24074;49.254;6.702;2023-10-13T04:08:26;10.37;;;5.83;;
9950;SDS011;24074;49.254;6.702;2023-10-13T04:10:52;13.33;;;6.67;;
9950;SDS011;24074;49.254;6.702;2023-10-13T04:13:19;9.50;;;6.33;;
9950;SDS011;24074;49.254;6.702;2023-10-13T04:15:45;15.50;;;6.80;;
9950;SDS011;24074;49.254;6.702;2023-10-13T04:18:39;8.90;;;5.37;;
9950;SDS011;24074;49.254;6.702;2023-10-13T04:21:34;9.87;;;5.10;;
9950;SDS011;24074;49.254;6.702;2023-10-13T04:24:22;12.13;;;5.33;;
9950;SDS011;24074;49.254;6.702;2023-10-13T04:26:48;6.67;;;4.80;;
9950;SDS011;24074;49.254;6.702;2023-10-13T04:29:34;9.50;;;5.87;;
9950;SDS011;24074;49.254;6.702;2023-10-13T04:32:18;12.63;;;6.07;;
9950;SDS011;24074;49.254;6.702;2023-10-13T04:35:03;12.70;;;5.63;;
9950;SDS011;24074;49.254;6.702;2023-10-13T04:37:43;9.40;;;6.00;;
9950;SDS011;24074;49.254;6.702;2023-10-13T04:40:19;15.80;;;8.37;;
9950;SDS011;24074;49.254;6.702;2023-10-13T04:42:49;15.90;;;8.80;;
9950;SDS011;24074;49.254;6.702;2023-10-13T04:45:18;12.33;;;8.33;;
9950;SDS011;24074;49.254;6.702;2023-10-13T04:47:56;13.07;;;8.43;;
9950;SDS011;24074;49.254;6.702;2023-10-13T04:50:39;20.37;;;9.27;;
9950;SDS011;24074;49.254;6.702;2023-10-13T04:53:18;16.27;;;8.57;;
9950;SDS011;24074;49.254;6.702;2023-10-13T04:55:58;16.53;;;8.70;;
9950;SDS011;24074;49.254;6.702;2023-10-13T04:58:44;17.63;;;8.90;;
9950;SDS011;24074;49.254;6.702;2023-10-13T05:01:28;14.57;;;8.50;;
9950;SDS011;24074;49.254;6.702;2023-10-13T05:03:54;16.67;;;9.17;;
9950;SDS011;24074;49.254;6.702;2023-10-13T05:06:38;13.50;;;8.67;;
9950;SDS011;24074;49.254;6.702;2023-10-13T05:09:06;16.20;;;8.90;;
9950;SDS011;24074;49.254;6.702;2023-10-13T05:11:50;12.83;;;9.17;;
9950;SDS011;24074;49.254;6.702;2023-10-13T05:14:48;14.90;;;8.47;;
9950;SDS011;24074;49.254;6.702;2023-10-13T05:17:32;14.97;;;8.77;;
9950;SDS011;24074;49.254;6.702;2023-10-13T05:20:16;11.90;;;8.60;;
9950;SDS011;24074;49.254;6.702;2023-10-13T05:23:00;17.90;;;8.43;;
9950;SDS011;24074;49.254;6.702;2023-10-13T05:25:44;14.93;;;8.43;;
9950;SDS011;24074;49.254;6.702;2023-10-13T05:28:28;12.40;;;8.60;;
9950;SDS011;24074;49.254;6.702;2023-10-13T05:31:12;16.47;;;8.50;;
9950;SDS011;24074;49.254;6.702;2023-10-13T05:33:56;16.20;;;8.63;;
9950;SDS011;24074;49.254;6.702;2023-10-13T05:36:40;13.90;;;8.50;;
9950;SDS011;24074;49.254;6.702;2023-10-13T05:39:25;15.37;;;9.37;;
9950;SDS011;24074;49.254;6.702;2023-10-13T05:42:09;13.97;;;8.87;;
9950;SDS011;24074;49.254;6.702;2023-10-13T05:44:53;16.47;;;9.67;;
9950;SDS011;24074;49.254;6.702;2023-10-13T05:47:41;14.87;;;9.50;;
9950;SDS011;24074;49.254;6.702;2023-10-13T05:50:07;10.73;;;8.50;;
9950;SDS011;24074;49.254;6.702;2023-10-13T05:52:49;11.77;;;8.50;;
9950;SDS011;24074;49.254;6.702;2023-10-13T05:55:21;11.90;;;8.67;;
9950;SDS011;24074;49.254;6.702;2023-10-13T05:58:09;12.70;;;8.73;;
9950;SDS011;24074;49.254;6.702;2023-10-13T06:00:54;13.00;;;9.77;;
9950;SDS011;24074;49.254;6.702;2023-10-13T06:03:39;11.37;;;8.60;;
9950;SDS011;24074;49.254;6.702;2023-10-13T06:06:23;15.63;;;9.10;;
9950;SDS011;24074;49.254;6.702;2023-10-13T06:09:07;18.50;;;9.73;;
9950;SDS011;24074;49.254;6.702;2023-10-13T06:11:51;14.50;;;9.60;;
9950;SDS011;24074;49.254;6.702;2023-10-13T06:14:35;14.60;;;9.60;;
9950;SDS011;24074;49.254;6.702;2023-10-13T06:17:19;12.87;;;9.53;;
9950;SDS011;24074;49.254;6.702;2023-10-13T06:20:03;10.50;;;9.40;;
9950;SDS011;24074;49.254;6.702;2023-10-13T06:22:48;16.80;;;9.97;;
9950;SDS011;24074;49.254;6.702;2023-10-13T06:25:32;12.70;;;9.37;;
9950;SDS011;24074;49.254;6.702;2023-10-13T06:28:18;12.23;;;9.37;;
9950;SDS011;24074;49.254;6.702;2023-10-13T06:31:03;14.70;;;9.17;;
9950;SDS011;24074;49.254;6.702;2023-10-13T06:33:33;13.73;;;8.90;;
9950;SDS011;24074;49.254;6.702;2023-10-13T06:36:10;13.83;;;9.03;;
9950;SDS011;24074;49.254;6.702;2023-10-13T06:38:36;13.07;;;8.27;;
9950;SDS011;24074;49.254;6.702;2023-10-13T06:41:02;12.63;;;9.27;;
9950;SDS011;24074;49.254;6.702;2023-10-13T06:43:34;14.07;;;8.03;;
9950;SDS011;24074;49.254;6.702;2023-10-13T06:46:11;15.13;;;7.63;;
9950;SDS011;24074;49.254;6.702;2023-10-13T06:48:48;10.73;;;6.97;;
9950;SDS011;24074;49.254;6.702;2023-10-13T06:51:18;13.00;;;7.50;;
9950;SDS011;24074;49.254;6.702;2023-10-13T06:53:46;11.63;;;7.70;;
9950;SDS011;24074;49.254;6.702;2023-10-13T06:56:13;15.10;;;8.67;;
9950;SDS011;24074;49.254;6.702;2023-10-13T06:58:48;12.17;;;8.17;;
9950;SDS011;24074;49.254;6.702;2023-10-13T07:01:13;10.13;;;7.90;;
9950;SDS011;24074;49.254;6.702;2023-10-13T07:03:47;13.57;;;8.80;;
9950;SDS011;24074;49.254;6.702;2023-10-13T07:06:18;14.17;;;9.47;;
9950;SDS011;24074;49.254;6.702;2023-10-13T07:08:45;12.73;;;8.50;;
9950;SDS011;24074;49.254;6.702;2023-10-13T07:11:17;11.87;;;8.80;;
9950;SDS011;24074;49.254;6.702;2023-10-13T07:14:05;11.10;;;8.70;;
9950;SDS011;24074;49.254;6.702;2023-10-13T07:16:42;10.63;;;8.20;;
9950;SDS011;24074;49.254;6.702;2023-10-13T07:19:11;10.60;;;8.70;;
9950;SDS011;24074;49.254;6.702;2023-10-13T07:21:42;13.43;;;8.40;;
9950;SDS011;24074;49.254;6.702;2023-10-13T07:24:11;9.20;;;8.07;;
9950;SDS011;24074;49.254;6.702;2023-10-13T07:26:38;13.20;;;8.70;;
9950;SDS011;24074;49.254;6.702;2023-10-13T07:29:08;10.47;;;8.20;;
9950;SDS011;24074;49.254;6.702;2023-10-13T07:31:34;11.40;;;8.50;;
9950;SDS011;24074;49.254;6.702;2023-10-13T07:34:02;9.10;;;7.50;;
9950;SDS011;24074;49.254;6.702;2023-10-13T07:36:37;13.17;;;8.80;;
9950;SDS011;24074;49.254;6.702;2023-10-13T07:39:08;12.40;;;8.17;;
9950;SDS011;24074;49.254;6.702;2023-10-13T07:41:49;15.57;;;8.30;;
9950;SDS011;24074;49.254;6.702;2023-10-13T07:44:45;10.97;;;8.07;;
9950;SDS011;24074;49.254;6.702;2023-10-13T07:47:11;10.07;;;7.73;;
9950;SDS011;24074;49.254;6.702;2023-10-13T07:49:39;11.10;;;7.60;;
9950;SDS011;24074;49.254;6.702;2023-10-13T07:52:06;9.27;;;6.63;;
9950;SDS011;24074;49.254;6.702;2023-10-13T07:54:45;9.97;;;6.70;;
9950;SDS011;24074;49.254;6.702;2023-10-13T07:57:15;12.33;;;6.77;;
9950;SDS011;24074;49.254;6.702;2023-10-13T07:59:41;7.13;;;6.43;;
9950;SDS011;24074;49.254;6.702;2023-10-13T08:02:15;8.90;;;6.28;;
9950;SDS011;24074;49.254;6.702;2023-10-13T08:05:00;8.57;;;6.50;;
9950;SDS011;24074;49.254;6.702;2023-10-13T08:07:26;8.23;;;6.10;;
9950;SDS011;24074;49.254;6.702;2023-10-13T08:09:53;8.45;;;5.97;;
9950;SDS011;24074;49.254;6.702;2023-10-13T08:12:19;8.27;;;6.07;;
9950;SDS011;24074;49.254;6.702;2023-10-13T08:14:48;12.25;;;6.60;;
9950;SDS011;24074;49.254;6.702;2023-10-13T08:17:13;11.80;;;7.18;;
9950;SDS011;24074;49.254;6.702;2023-10-13T08:19:39;8.70;;;6.57;;
9950;SDS011;24074;49.254;6.702;2023-10-13T08:22:06;9.45;;;6.95;;
9950;SDS011;24074;49.254;6.702;2023-10-13T08:24:48;10.38;;;7.32;;
9950;SDS011;24074;49.254;6.702;2023-10-13T08:27:18;8.65;;;6.50;;
9950;SDS011;24074;49.254;6.702;2023-10-13T08:30:13;10.68;;;7.43;;
9950;SDS011;24074;49.254;6.702;2023-10-13T08:32:51;9.75;;;7.38;;
9950;SDS011;24074;49.254;6.702;2023-10-13T08:35:20;13.37;;;7.10;;
9950;SDS011;24074;49.254;6.702;2023-10-13T08:37:54;12.17;;;8.00;;
9950;SDS011;24074;49.254;6.702;2023-10-13T08:40:23;12.17;;;7.33;;
9950;SDS011;24074;49.254;6.702;2023-10-13T08:43:08;8.70;;;7.40;;
9950;SDS011;24074;49.254;6.702;2023-10-13T08:45:37;10.43;;;7.10;;
9950;SDS011;24074;49.254;6.702;2023-10-13T08:48:12;8.23;;;6.80;;
9950;SDS011;24074;49.254;6.702;2023-10-13T08:50:49;8.40;;;6.50;;
9950;SDS011;24074;49.254;6.702;2023-10-13T08:58:30;8.33;;;6.80;;
9950;SDS011;24074;49.254;6.702;2023-10-13T09:01:15;11.43;;;6.25;;
9950;SDS011;24074;49.254;6.702;2023-10-13T09:04:04;11.15;;;6.40;;
9950;SDS011;24074;49.254;6.702;2023-10-13T09:09:28;9.40;;;5.40;;
9950;SDS011;24074;49.254;6.702;2023-10-13T09:14:43;10.32;;;5.28;;
9950;SDS011;24074;49.254;6.702;2023-10-13T09:17:22;7.68;;;5.40;;
9950;SDS011;24074;49.254;6.702;2023-10-13T09:20:07;7.78;;;5.05;;
9950;SDS011;24074;49.254;6.702;2023-10-13T09:22:56;8.18;;;6.10;;
9950;SDS011;24074;49.254;6.702;2023-10-13T09:30:47;8.38;;;5.40;;
9950;SDS011;24074;49.254;6.702;2023-10-13T09:33:21;7.47;;;5.55;;
9950;SDS011;24074;49.254;6.702;2023-10-13T09:36:15;9.68;;;5.18;;
9950;SDS011;24074;49.254;6.702;2023-10-13T09:38:42;7.00;;;5.00;;
9950;SDS011;24074;49.254;6.702;2023-10-13T09:41:28;7.95;;;5.00;;
9950;SDS011;24074;49.254;6.702;2023-10-13T09:43:57;7.18;;;4.80;;
9950;SDS011;24074;49.254;6.702;2023-10-13T09:46:23;5.55;;;4.93;;
9950;SDS011;24074;49.254;6.702;2023-10-13T09:48:54;9.65;;;5.10;;
9950;SDS011;24074;49.254;6.702;2023-10-13T09:51:30;7.82;;;4.55;;
9950;SDS011;24074;49.254;6.702;2023-10-13T09:56:54;6.78;;;4.65;;
9950;SDS011;24074;49.254;6.702;2023-10-13T09:59:32;10.50;;;5.40;;
9950;SDS011;24074;49.254;6.702;2023-10-13T10:02:02;7.22;;;4.80;;
9950;SDS011;24074;49.254;6.702;2023-10-13T10:04:33;6.68;;;5.25;;
9950;SDS011;24074;49.254;6.702;2023-10-13T10:07:09;7.18;;;5.18;;
9950;SDS011;24074;49.254;6.702;2023-10-13T10:09:35;7.90;;;5.30;;
9950;SDS011;24074;49.254;6.702;2023-10-13T10:17:24;5.95;;;4.97;;
9950;SDS011;24074;49.254;6.702;2023-10-13T10:19:54;8.32;;;4.80;;
9950;SDS011;24074;49.254;6.702;2023-10-13T10:22:28;10.27;;;4.75;;
9950;SDS011;24074;49.254;6.702;2023-10-13T10:25:01;7.40;;;5.28;;
9950;SDS011;24074;49.254;6.702;2023-10-13T10:27:29;7.13;;;4.68;;
9950;SDS011;24074;49.254;6.702;2023-10-13T10:29:57;5.75;;;5.00;;
9950;SDS011;24074;49.254;6.702;2023-10-13T10:32:33;5.75;;;5.00;;
9950;SDS011;24074;49.254;6.702;2023-10-13T10:35:03;5.85;;;4.93;;
9950;SDS011;24074;49.254;6.702;2023-10-13T10:37:33;6.32;;;5.10;;
9950;SDS011;24074;49.254;6.702;2023-10-13T10:39:59;9.57;;;5.22;;
9950;SDS011;24074;49.254;6.702;2023-10-13T10:42:26;9.13;;;5.38;;
9950;SDS011;24074;49.254;6.702;2023-10-13T10:44:54;7.70;;;5.40;;
9950;SDS011;24074;49.254;6.702;2023-10-13T10:47:30;7.07;;;5.32;;
9950;SDS011;24074;49.254;6.702;2023-10-13T10:49:59;6.32;;;5.30;;
9950;SDS011;24074;49.254;6.702;2023-10-13T10:52:32;8.40;;;5.65;;
9950;SDS011;24074;49.254;6.702;2023-10-13T10:55:04;9.10;;;5.45;;
9950;SDS011;24074;49.254;6.702;2023-10-13T10:57:34;5.63;;;4.75;;
9950;SDS011;24074;49.254;6.702;2023-10-13T11:00:03;6.03;;;5.10;;
9950;SDS011;24074;49.254;6.702;2023-10-13T11:02:39;6.80;;;4.75;;
9950;SDS011;24074;49.254;6.702;2023-10-13T11:05:06;7.07;;;5.00;;
9950;SDS011;24074;49.254;6.702;2023-10-13T11:07:34;6.88;;;5.40;;
9950;SDS011;24074;49.254;6.702;2023-10-13T11:10:07;9.23;;;5.35;;
9950;SDS011;24074;49.254;6.702;2023-10-13T11:12:53;10.07;;;6.95;;
9950;SDS011;24074;49.254;6.702;2023-10-13T11:15:19;10.57;;;5.38;;
9950;SDS011;24074;49.254;6.702;2023-10-13T11:17:50;6.78;;;5.55;;
9950;SDS011;24074;49.254;6.702;2023-10-13T11:20:19;8.07;;;5.10;;
9950;SDS011;24074;49.254;6.702;2023-10-13T11:22:58;7.35;;;4.82;;
9950;SDS011;24074;49.254;6.702;2023-10-13T11:25:25;8.23;;;4.63;;
9950;SDS011;24074;49.254;6.702;2023-10-13T11:27:54;7.22;;;5.50;;
9950;SDS011;24074;49.254;6.702;2023-10-13T11:30:25;7.40;;;4.50;;
9950;SDS011;24074;49.254;6.702;2023-10-13T11:33:06;7.97;;;5.13;;
9950;SDS011;24074;49.254;6.702;2023-10-13T11:35:33;6.28;;;4.80;;
9950;SDS011;24074;49.254;6.702;2023-10-13T11:41:05;8.85;;;4.45;;
9950;SDS011;24074;49.254;6.702;2023-10-13T11:43:34;6.35;;;5.13;;
9950;SDS011;24074;49.254;6.702;2023-10-13T11:46:09;7.07;;;4.70;;
9950;SDS011;24074;49.254;6.702;2023-10-13T11:48:35;7.93;;;4.95;;
9950;SDS011;24074;49.254;6.702;2023-10-13T11:51:02;10.10;;;5.10;;
9950;SDS011;24074;49.254;6.702;2023-10-13T11:53:33;8.93;;;4.88;;
9950;SDS011;24074;49.254;6.702;2023-10-13T11:56:00;10.85;;;5.18;;
9950;SDS011;24074;49.254;6.702;2023-10-13T11:58:34;8.13;;;5.80;;
9950;SDS011;24074;49.254;6.702;2023-10-13T12:01:03;8.73;;;5.07;;
9950;SDS011;24074;49.254;6.702;2023-10-13T12:03:38;5.32;;;4.60;;
9950;SDS011;24074;49.254;6.702;2023-10-13T12:06:29;8.20;;;4.97;;
9950;SDS011;24074;49.254;6.702;2023-10-13T12:08:59;9.55;;;5.25;;
9950;SDS011;24074;49.254;6.702;2023-10-13T12:11:39;8.63;;;4.95;;
9950;SDS011;24074;49.254;6.702;2023-10-13T12:14:07;9.13;;;4.65;;
9950;SDS011;24074;49.254;6.702;2023-10-13T12:16:46;9.20;;;5.55;;
9950;SDS011;24074;49.254;6.702;2023-10-13T12:19:22;9.23;;;5.57;;
9950;SDS011;24074;49.254;6.702;2023-10-13T12:21:54;8.88;;;4.85;;
9950;SDS011;24074;49.254;6.702;2023-10-13T12:24:21;8.40;;;4.60;;
9950;SDS011;24074;49.254;6.702;2023-10-13T12:26:55;8.85;;;5.00;;
9950;SDS011;24074;49.254;6.702;2023-10-13T12:29:24;7.20;;;5.05;;
9950;SDS011;24074;49.254;6.702;2023-10-13T12:31:57;10.63;;;4.80;;
9950;SDS011;24074;49.254;6.702;2023-10-13T12:34:37;9.25;;;5.18;;
9950;SDS011;24074;49.254;6.702;2023-10-13T12:37:41;7.95;;;4.88;;
9950;SDS011;24074;49.254;6.702;2023-10-13T12:40:08;7.10;;;4.47;;
9950;SDS011;24074;49.254;6.702;2023-10-13T12:42:54;8.85;;;4.78;;
9950;SDS011;24074;49.254;6.702;2023-10-13T12:45:41;7.70;;;5.15;;
9950;SDS011;24074;49.254;6.702;2023-10-13T12:48:26;8.98;;;5.18;;
9950;SDS011;24074;49.254;6.702;2023-10-13T12:51:11;7.75;;;5.30;;
9950;SDS011;24074;49.254;6.702;2023-10-13T12:53:55;5.63;;;4.80;;
9950;SDS011;24074;49.254;6.702;2023-10-13T12:56:29;6.43;;;4.15;;
9950;SDS011;24074;49.254;6.702;2023-10-13T12:58:55;10.52;;;5.22;;
9950;SDS011;24074;49.254;6.702;2023-10-13T13:01:22;11.30;;;5.38;;
9950;SDS011;24074;49.254;6.702;2023-10-13T13:03:50;7.32;;;4.82;;
9950;SDS011;24074;49.254;6.702;2023-10-13T13:06:20;9.65;;;4.88;;
9950;SDS011;24074;49.254;6.702;2023-10-13T13:08:54;7.25;;;4.80;;
9950;SDS011;24074;49.254;6.702;2023-10-13T13:11:20;8.32;;;4.90;;
9950;SDS011;24074;49.254;6.702;2023-10-13T13:13:46;8.07;;;5.10;;
9950;SDS011;24074;49.254;6.702;2023-10-13T13:16:15;9.68;;;4.70;;
9950;SDS011;24074;49.254;6.702;2023-10-13T13:18:49;6.72;;;4.90;;
9950;SDS011;24074;49.254;6.702;2023-10-13T13:21:15;8.77;;;4.85;;
9950;SDS011;24074;49.254;6.702;2023-10-13T13:23:46;9.98;;;4.72;;
9950;SDS011;24074;49.254;6.702;2023-10-13T13:26:12;7.68;;;4.53;;
9950;SDS011;24074;49.254;6.702;2023-10-13T13:28:42;6.95;;;4.80;;
9950;SDS011;24074;49.254;6.702;2023-10-13T13:31:15;8.07;;;4.50;;
9950;SDS011;24074;49.254;6.702;2023-10-13T13:33:41;9.93;;;6.32;;
9950;SDS011;24074;49.254;6.702;2023-10-13T13:36:10;5.93;;;4.53;;
9950;SDS011;24074;49.254;6.702;2023-10-13T13:38:40;6.25;;;4.65;;
9950;SDS011;24074;49.254;6.702;2023-10-13T13:41:13;8.55;;;4.40;;
9950;SDS011;24074;49.254;6.702;2023-10-13T13:43:50;6.63;;;4.07;;
9950;SDS011;24074;49.254;6.702;2023-10-13T13:46:19;7.15;;;4.25;;
9950;SDS011;24074;49.254;6.702;2023-10-13T13:48:49;7.05;;;4.22;;
9950;SDS011;24074;49.254;6.702;2023-10-13T13:51:16;8.75;;;4.30;;
9950;SDS011;24074;49.254;6.702;2023-10-13T13:53:51;6.20;;;4.32;;
9950;SDS011;24074;49.254;6.702;2023-10-13T13:56:18;8.02;;;4.43;;
9950;SDS011;24074;49.254;6.702;2023-10-13T13:58:47;6.70;;;3.92;;
9950;SDS011;24074;49.254;6.702;2023-10-13T14:01:15;9.15;;;4.07;;
9950;SDS011;24074;49.254;6.702;2023-10-13T14:03:43;9.80;;;4.88;;
9950;SDS011;24074;49.254;6.702;2023-10-13T14:06:15;8.88;;;4.20;;
9950;SDS011;24074;49.254;6.702;2023-10-13T14:08:49;7.72;;;4.10;;
9950;SDS011;24074;49.254;6.702;2023-10-13T14:11:16;8.00;;;4.07;;
9950;SDS011;24074;49.254;6.702;2023-10-13T14:14:01;8.00;;;4.10;;
9950;SDS011;24074;49.254;6.702;2023-10-13T14:16:32;10.13;;;8.85;;
9950;SDS011;24074;49.254;6.702;2023-10-13T14:18:58;18.05;;;15.75;;
9950;SDS011;24074;49.254;6.702;2023-10-13T14:21:32;14.63;;;9.25;;
9950;SDS011;24074;49.254;6.702;2023-10-13T14:24:00;13.50;;;8.25;;
9950;SDS011;24074;49.254;6.702;2023-10-13T14:26:26;12.13;;;6.05;;
9950;SDS011;24074;49.254;6.702;2023-10-13T14:28:52;12.98;;;9.02;;
9950;SDS011;24074;49.254;6.702;2023-10-13T14:34:50;15.93;;;12.70;;
9950;SDS011;24074;49.254;6.702;2023-10-13T14:37:20;20.88;;;15.50;;
9950;SDS011;24074;49.254;6.702;2023-10-13T14:39:51;11.13;;;7.68;;
9950;SDS011;24074;49.254;6.702;2023-10-13T14:42:21;9.80;;;6.30;;
9950;SDS011;24074;49.254;6.702;2023-10-13T14:44:51;7.25;;;4.55;;
9950;SDS011;24074;49.254;6.702;2023-10-13T14:47:21;9.13;;;4.63;;
9950;SDS011;24074;49.254;6.702;2023-10-13T14:49:53;8.55;;;4.10;;
9950;SDS011;24074;49.254;6.702;2023-10-13T14:52:20;5.82;;;4.22;;
9950;SDS011;24074;49.254;6.702;2023-10-13T14:54:48;8.88;;;5.05;;
9950;SDS011;24074;49.254;6.702;2023-10-13T14:57:20;6.88;;;4.15;;
9950;SDS011;24074;49.254;6.702;2023-10-13T14:59:54;11.30;;;5.03;;
9950;SDS011;24074;49.254;6.702;2023-10-13T15:02:22;6.00;;;4.22;;
9950;SDS011;24074;49.254;6.702;2023-10-13T15:04:47;8.20;;;3.90;;
9950;SDS011;24074;49.254;6.702;2023-10-13T15:07:14;7.35;;;4.60;;
9950;SDS011;24074;49.254;6.702;2023-10-13T15:09:41;6.22;;;4.40;;
9950;SDS011;24074;49.254;6.702;2023-10-13T15:12:08;10.05;;;4.82;;
9950;SDS011;24074;49.254;6.702;2023-10-13T15:14:35;7.22;;;6.05;;
9950;SDS011;24074;49.254;6.702;2023-10-13T15:17:02;6.35;;;4.60;;
9950;SDS011;24074;49.254;6.702;2023-10-13T15:19:31;8.90;;;6.25;;
9950;SDS011;24074;49.254;6.702;2023-10-13T15:22:01;6.38;;;4.60;;
9950;SDS011;24074;49.254;6.702;2023-10-13T15:24:27;7.32;;;5.57;;
9950;SDS011;24074;49.254;6.702;2023-10-13T15:26:53;7.70;;;3.97;;
9950;SDS011;24074;49.254;6.702;2023-10-13T15:29:30;9.13;;;4.30;;
9950;SDS011;24074;49.254;6.702;2023-10-13T15:32:00;5.13;;;3.65;;
9950;SDS011;24074;49.254;6.702;2023-10-13T15:34:29;10.70;;;5.03;;
9950;SDS011;24074;49.254;6.702;2023-10-13T15:36:56;8.43;;;4.85;;
9950;SDS011;24074;49.254;6.702;2023-10-13T15:39:23;6.05;;;3.80;;
9950;SDS011;24074;49.254;6.702;2023-10-13T15:41:50;5.95;;;4.60;;
9950;SDS011;24074;49.254;6.702;2023-10-13T15:44:19;7.15;;;3.90;;
9950;SDS011;24074;49.254;6.702;2023-10-13T15:46:49;7.25;;;4.00;;
9950;SDS011;24074;49.254;6.702;2023-10-13T15:49:18;3.97;;;3.38;;
9950;SDS011;24074;49.254;6.702;2023-10-13T15:51:43;9.75;;;4.72;;
9950;SDS011;24074;49.254;6.702;2023-10-13T15:54:09;5.47;;;3.78;;
9950;SDS011;24074;49.254;6.702;2023-10-13T15:56:42;8.93;;;4.20;;
9950;SDS011;24074;49.254;6.702;2023-10-13T15:59:08;6.93;;;4.55;;
9950;SDS011;24074;49.254;6.702;2023-10-13T16:01:34;6.53;;;3.85;;
9950;SDS011;24074;49.254;6.702;2023-10-13T16:04:00;9.30;;;4.40;;